Murdochville, Canada
Current Conditions -  °F | °C
As of 12:00 AM on Tuesday 27 Jan 2015 (Local Time) from CYGP Reporting Station
Few Clouds Few Clouds  
Wind Chill: -31°   Ceiling: Unl
Heat Index: -23°   Visibility: 15mi
Dew Point: -26°   Wind: 7mph
Humidity: 77%   Direction: 290°WNW
Pressure: 30.47"   Gusts: NA
Location:  48.97°N, 65.52°W
Report Text: CYGP 270500Z 29006KT 220V290 15SM FEW120 M23/M26 A3047 RMK AC2 SLP320
Loading
Personal Weather Stations






























Interactive Weather Map New forecast layout! Learn more

10-Day Weather Forecast

Advertisements
Track Severe Weather on mobile